Time;durP1;ratioP1;P1;durP2;ratioP2;P2;SDS_P1;SDS_P2;PMS_P1;PMS_P2;Temp;Humidity;BMP_temperature;BMP_pressure;BME280_temperature;BME280_humidity;BME280_pressure;Samples;Min_cycle;Max_cycle;Signal;HPM_P1;HPM_P2
2023/05/09 00:00:49;;;;;;;23.52;21.05;;;15.10;1.00;;;;;;4952567;28;21867;-69
2023/05/09 00:03:16;;;;;;;23.07;20.70;;;15.10;1.00;;;;;;4951023;28;20203;-68
2023/05/09 00:05:43;;;;;;;22.90;20.58;;;15.10;11.60;;;;;;4955677;28;20199;-68
2023/05/09 00:08:10;;;;;;;25.60;20.20;;;15.00;1.00;;;;;;4954758;28;20203;-67
2023/05/09 00:10:37;;;;;;;22.38;20.02;;;15.00;1.00;;;;;;4936808;29;20700;-67
2023/05/09 00:13:04;;;;;;;26.27;20.40;;;15.00;1.00;;;;;;4955399;28;20555;-66
2023/05/09 00:15:31;;;;;;;22.63;20.23;;;15.00;1.00;;;;;;4952476;28;20225;-68
2023/05/09 00:17:58;;;;;;;24.07;19.80;;;15.00;1.00;;;;;;4950308;28;20703;-68
2023/05/09 00:20:25;;;;;;;22.93;20.40;;;14.90;1.00;;;;;;4946396;28;20189;-66
2023/05/09 00:22:52;;;;;;;23.77;20.67;;;14.90;2.90;;;;;;4934596;28;20314;-66
2023/05/09 00:25:19;;;;;;;22.27;19.40;;;14.90;5.70;;;;;;4947775;28;20274;-66
2023/05/09 00:27:46;;;;;;;24.73;19.95;;;14.80;11.40;;;;;;4949069;28;20207;-66
2023/05/09 00:30:13;;;;;;;22.13;19.83;;;14.80;16.20;;;;;;4951691;28;20211;-67
2023/05/09 00:32:40;;;;;;;24.45;20.10;;;14.80;20.80;;;;;;4951328;28;20199;-66
2023/05/09 00:35:08;;;;;;;25.40;19.63;;;14.70;29.30;;;;;;4950026;28;20278;-68
2023/05/09 00:37:36;;;;;;;21.17;19.07;;;14.60;35.10;;;;;;4946891;28;20210;-67
2023/05/09 00:40:05;;;;;;;22.10;19.80;;;14.60;44.10;;;;;;4961687;28;20211;-67
2023/05/09 00:42:32;;;;;;;21.70;18.67;;;14.60;53.90;;;;;;4952817;28;20195;-68
2023/05/09 00:45:00;;;;;;;21.47;19.13;;;14.60;55.20;;;;;;4969315;28;20198;-67
2023/05/09 00:47:28;;;;;;;20.77;18.70;;;14.50;59.50;;;;;;4969185;28;20253;-67
2023/05/09 00:49:56;;;;;;;24.87;20.33;;;14.50;81.30;;;;;;4966987;28;20710;-66
2023/05/09 00:52:27;;;;;;;21.80;19.50;;;14.40;77.40;;;;;;4960015;28;20204;-67
2023/05/09 00:54:55;;;;;;;23.00;19.60;;;14.40;32.80;;;;;;4965634;28;20226;-66
2023/05/09 00:57:22;;;;;;;22.43;20.03;;;14.40;36.80;;;;;;4957899;28;20273;-66
2023/05/09 00:59:49;;;;;;;22.93;20.63;;;14.30;39.20;;;;;;4930732;29;20196;-67
2023/05/09 01:02:17;;;;;;;22.50;19.33;;;14.30;37.50;;;;;;4933427;29;20251;-68
2023/05/09 01:04:45;;;;;;;21.87;19.50;;;14.20;36.70;;;;;;4959640;28;20250;-67
2023/05/09 01:07:33;;;;;;;24.43;19.10;;;14.10;34.10;;;;;;4941108;28;20219;-67
2023/05/09 01:10:46;;;;;;;21.30;19.07;;;14.10;34.20;;;;;;4937498;28;20216;-68
2023/05/09 01:13:26;;;;;;;21.47;19.27;;;14.10;40.90;;;;;;4905854;29;20739;-66
2023/05/09 01:16:05;;;;;;;21.63;19.33;;;14.00;46.60;;;;;;4948332;29;20840;-67
2023/05/09 01:18:38;;;;;;;22.57;19.07;;;14.00;63.70;;;;;;4936076;28;20566;-67
2023/05/09 01:21:10;;;;;;;21.73;19.43;;;14.00;63.20;;;;;;4912469;29;20574;-66
2023/05/09 01:23:43;;;;;;;23.13;18.80;;;13.90;80.70;;;;;;4944004;29;20204;-66
2023/05/09 01:26:28;;;;;;;23.03;19.77;;;13.90;81.90;;;;;;4940502;28;20219;-67
2023/05/09 01:29:26;;;;;;;24.87;20.33;;;13.80;99.90;;;;;;4930507;28;20706;-66
2023/05/09 01:31:55;;;;;;;21.77;19.47;;;13.70;99.60;;;;;;4929731;29;20711;-67
2023/05/09 01:34:27;;;;;;;21.53;19.13;;;13.70;99.90;;;;;;4920724;29;20195;-68
2023/05/09 01:36:58;;;;;;;22.33;20.10;;;13.70;99.90;;;;;;4940517;28;20207;-66
2023/05/09 01:39:26;;;;;;;20.63;18.63;;;13.70;93.30;;;;;;4929231;29;20184;-67
2023/05/09 01:41:56;;;;;;;22.70;19.67;;;13.60;97.80;;;;;;4938155;29;20237;-64
2023/05/09 01:44:25;;;;;;;22.47;19.40;;;13.60;94.50;;;;;;4921630;29;20189;-65
2023/05/09 01:46:57;;;;;;;22.37;19.93;;;13.50;98.80;;;;;;4933071;29;20192;-65
2023/05/09 01:49:27;;;;;;;23.27;19.90;;;13.50;90.00;;;;;;4933362;29;20227;-65
2023/05/09 01:51:56;;;;;;;21.13;18.83;;;13.50;63.40;;;;;;4921870;29;20223;-65
2023/05/09 01:54:25;;;;;;;22.03;18.70;;;13.50;55.30;;;;;;4932227;29;20207;-66
2023/05/09 01:56:54;;;;;;;23.27;18.07;;;13.50;39.20;;;;;;4927190;29;20214;-67
2023/05/09 01:59:22;;;;;;;21.57;19.27;;;13.50;26.20;;;;;;4932259;29;20703;-65
2023/05/09 02:01:51;;;;;;;20.83;18.70;;;13.40;23.00;;;;;;4926697;29;20230;-66
2023/05/09 02:04:19;;;;;;;22.53;18.23;;;13.50;17.80;;;;;;4966139;28;20655;-68
2023/05/09 02:06:50;;;;;;;20.30;18.13;;;13.40;1.00;;;;;;4922024;29;20200;-66
2023/05/09 02:09:18;;;;;;;19.80;17.80;;;13.50;1.00;;;;;;4940746;29;20208;-68
2023/05/09 02:11:46;;;;;;;22.50;18.90;;;13.50;1.00;;;;;;4949252;29;20245;-65
2023/05/09 02:14:13;;;;;;;20.33;18.27;;;13.40;1.00;;;;;;4943489;29;20207;-66
2023/05/09 02:16:41;;;;;;;21.03;18.83;;;13.40;1.00;;;;;;4948256;28;20552;-65
2023/05/09 02:19:08;;;;;;;20.37;17.70;;;13.40;1.00;;;;;;4943631;28;20205;-66
2023/05/09 02:21:35;;;;;;;21.10;18.97;;;13.40;1.00;;;;;;4951748;29;20663;-66
2023/05/09 02:24:03;;;;;;;22.13;18.30;;;13.30;1.00;;;;;;4941222;29;20195;-66
2023/05/09 02:26:30;;;;;;;19.77;17.67;;;13.30;1.00;;;;;;4938578;29;20191;-67
2023/05/09 02:28:58;;;;;;;19.67;17.60;;;13.30;1.00;;;;;;4915918;29;20203;-65
2023/05/09 02:31:27;;;;;;;21.37;18.90;;;13.20;1.00;;;;;;4949124;29;20219;-66
2023/05/09 02:33:55;;;;;;;20.70;18.50;;;13.20;1.00;;;;;;4946888;29;20291;-66
2023/05/09 02:36:22;;;;;;;20.90;18.50;;;13.20;1.00;;;;;;4961716;28;20223;-65
2023/05/09 02:38:50;;;;;;;20.80;18.70;;;13.10;1.00;;;;;;4918540;29;20217;-65
2023/05/09 02:41:17;;;;;;;22.90;20.37;;;13.10;1.00;;;;;;4960148;28;20633;-65
2023/05/09 02:43:44;;;;;;;20.17;18.03;;;13.10;1.00;;;;;;4951774;28;20302;-66
2023/05/09 02:46:11;;;;;;;18.97;17.07;;;13.10;3.30;;;;;;4923071;28;20631;-65
2023/05/09 02:48:38;;;;;;;20.13;17.43;;;13.10;14.00;;;;;;4953450;28;20203;-66
2023/05/09 02:51:05;;;;;;;19.47;17.37;;;13.00;1.00;;;;;;4919226;28;20230;-62
2023/05/09 02:53:32;;;;;;;20.50;18.10;;;13.00;1.00;;;;;;4948107;28;20237;-62
2023/05/09 02:55:59;;;;;;;18.93;17.07;;;12.90;1.00;;;;;;4933719;29;20229;-62
2023/05/09 02:58:26;;;;;;;20.20;17.57;;;12.90;1.00;;;;;;4948033;28;20257;-63
2023/05/09 03:00:53;;;;;;;18.27;16.40;;;12.90;1.00;;;;;;4948367;28;20688;-62
2023/05/09 03:03:22;;;;;;;18.07;16.37;;;12.90;1.00;;;;;;4948241;28;20238;-66
2023/05/09 03:05:50;;;;;;;20.30;17.93;;;12.90;1.00;;;;;;4934273;28;20943;-63
2023/05/09 03:08:17;;;;;;;21.20;17.93;;;12.90;1.00;;;;;;4931383;28;20245;-62
2023/05/09 03:10:44;;;;;;;19.70;17.70;;;12.90;1.00;;;;;;4924124;29;20314;-63
2023/05/09 03:13:11;;;;;;;20.67;18.43;;;12.90;1.00;;;;;;4931099;28;20195;-61
2023/05/09 03:15:38;;;;;;;20.20;18.07;;;12.80;1.00;;;;;;4948311;28;20195;-62
2023/05/09 03:18:06;;;;;;;20.47;18.33;;;12.70;1.00;;;;;;4938269;28;20218;-61
2023/05/09 03:20:33;;;;;;;21.77;19.47;;;12.70;1.00;;;;;;4948105;28;20978;-65
2023/05/09 03:23:01;;;;;;;24.00;19.20;;;12.70;1.00;;;;;;4915565;28;20992;-61
2023/05/09 03:25:28;;;;;;;22.03;19.03;;;12.60;1.00;;;;;;4930379;29;20199;-61
2023/05/09 03:27:55;;;;;;;22.50;18.50;;;12.70;1.00;;;;;;4930749;28;20293;-63
2023/05/09 03:30:23;;;;;;;21.30;19.00;;;12.60;1.00;;;;;;4931765;29;20223;-61
2023/05/09 03:32:50;;;;;;;20.40;18.23;;;12.60;1.00;;;;;;4931312;28;20199;-62
2023/05/09 03:35:17;;;;;;;23.33;17.93;;;12.70;1.00;;;;;;4931905;28;20199;-64
2023/05/09 03:37:44;;;;;;;22.13;18.50;;;12.70;1.00;;;;;;4949024;28;20759;-65
2023/05/09 03:40:11;;;;;;;21.33;19.17;;;12.70;1.00;;;;;;4938970;29;20205;-64
2023/05/09 03:42:45;;;;;;;20.97;17.97;;;12.80;1.00;;;;;;4946845;28;20644;-63
2023/05/09 03:45:12;;;;;;;22.63;19.07;;;12.80;1.00;;;;;;4954582;28;20755;-62
2023/05/09 03:47:40;;;;;;;21.50;18.13;;;12.80;1.00;;;;;;4956573;28;20283;-62
2023/05/09 03:50:08;;;;;;;21.50;19.23;;;12.80;1.00;;;;;;4965256;28;20634;-65
2023/05/09 03:52:36;;;;;;;25.40;18.33;;;12.80;1.00;;;;;;4956543;28;20191;-62
2023/05/09 03:55:04;;;;;;;18.87;16.97;;;12.80;1.00;;;;;;4925571;29;20196;-64
2023/05/09 03:57:34;;;;;;;21.27;18.67;;;12.80;1.00;;;;;;4932733;28;20213;-64
2023/05/09 04:00:04;;;;;;;20.30;18.30;;;12.80;1.00;;;;;;4959162;28;20186;-64
2023/05/09 04:02:40;;;;;;;35.47;18.83;;;12.90;1.00;;;;;;4956283;28;20390;-63
2023/05/09 04:05:11;;;;;;;23.90;18.47;;;12.90;1.00;;;;;;4959270;28;20748;-62
2023/05/09 04:07:38;;;;;;;21.17;18.53;;;12.90;1.00;;;;;;4958687;28;20745;-63
2023/05/09 04:10:07;;;;;;;22.47;18.13;;;13.10;1.00;;;;;;4941507;28;20688;-63
2023/05/09 04:12:35;;;;;;;20.90;18.03;;;13.10;1.00;;;;;;4957105;28;20244;-62
2023/05/09 04:15:02;;;;;;;20.93;18.53;;;13.10;1.00;;;;;;4942268;28;20253;-62
2023/05/09 04:17:30;;;;;;;20.60;18.40;;;13.20;1.00;;;;;;4949636;28;20689;-63
2023/05/09 04:19:57;;;;;;;19.50;17.40;;;13.20;1.00;;;;;;4948267;28;20203;-63
2023/05/09 04:22:24;;;;;;;20.83;17.37;;;13.40;1.00;;;;;;4944000;28;20272;-64
2023/05/09 04:24:51;;;;;;;19.07;17.07;;;13.50;1.00;;;;;;4934128;29;20235;-63
2023/05/09 04:27:18;;;;;;;18.33;16.53;;;13.70;1.00;;;;;;4933469;28;20220;-65
2023/05/09 04:29:45;;;;;;;17.07;15.37;;;14.00;1.00;;;;;;4958812;28;20660;-66
2023/05/09 04:32:14;;;;;;;15.80;14.10;;;14.40;1.00;;;;;;4948176;28;20241;-63
2023/05/09 04:34:41;;;;;;;17.73;13.47;;;14.80;1.00;;;;;;4941078;28;20624;-67
2023/05/09 04:37:15;;;;;;;16.00;12.27;;;15.10;1.00;;;;;;4920392;28;20756;-67
2023/05/09 04:39:42;;;;;;;14.88;13.38;;;15.00;1.00;;;;;;4968378;28;20568;-66
2023/05/09 04:42:18;;;;;;;14.30;12.85;;;15.00;1.00;;;;;;4961351;28;20218;-68
2023/05/09 04:44:46;;;;;;;13.38;11.98;;;14.90;1.00;;;;;;4952256;28;20268;-67
2023/05/09 04:47:16;;;;;;;14.98;13.48;;;14.80;1.00;;;;;;4968137;28;20210;-68
2023/05/09 04:49:43;;;;;;;15.60;14.05;;;14.80;1.00;;;;;;4959390;28;20220;-67
2023/05/09 04:52:10;;;;;;;17.00;14.73;;;14.70;1.00;;;;;;4962186;28;20210;-67
2023/05/09 04:54:37;;;;;;;16.55;14.85;;;14.70;1.00;;;;;;4932017;28;20203;-67
2023/05/09 04:57:05;;;;;;;16.88;14.90;;;14.80;1.00;;;;;;4936253;28;20198;-65
2023/05/09 04:59:46;;;;;;;14.65;13.10;;;15.20;1.00;;;;;;4944496;28;20198;-67
2023/05/09 05:02:14;;;;;;;13.55;12.30;;;15.80;1.00;;;;;;4959394;28;20733;-66
2023/05/09 05:04:42;;;;;;;13.55;12.23;;;16.10;1.00;;;;;;4951726;28;20206;-66
2023/05/09 05:07:09;;;;;;;14.65;12.80;;;16.10;1.00;;;;;;4960466;28;20359;-66
2023/05/09 05:09:37;;;;;;;16.30;12.93;;;16.10;1.00;;;;;;4955734;28;20203;-67
2023/05/09 05:12:06;;;;;;;14.60;13.27;;;15.80;1.00;;;;;;4930565;29;20582;-67
2023/05/09 05:14:36;;;;;;;14.00;12.65;;;15.80;1.00;;;;;;4907312;29;20222;-67
2023/05/09 05:17:05;;;;;;;15.55;13.98;;;15.70;1.00;;;;;;4947403;28;20569;-66
2023/05/09 05:19:32;;;;;;;14.52;12.93;;;15.80;1.00;;;;;;4971320;28;20249;-66
2023/05/09 05:22:01;;;;;;;14.57;13.02;;;16.10;1.00;;;;;;4950632;28;20218;-66
2023/05/09 05:24:30;;;;;;;13.68;12.30;;;16.40;1.00;;;;;;4970950;28;20198;-66
2023/05/09 05:26:57;;;;;;;14.77;13.40;;;16.60;1.00;;;;;;4972318;28;20190;-66
2023/05/09 05:29:24;;;;;;;15.02;13.60;;;16.80;1.00;;;;;;4965561;28;20217;-69
2023/05/09 05:31:51;;;;;;;16.15;12.93;;;16.90;1.00;;;;;;4968419;28;20203;-67
2023/05/09 05:34:20;;;;;;;13.85;11.88;;;17.10;1.00;;;;;;4932173;29;20211;-66
2023/05/09 05:36:47;;;;;;;13.77;12.48;;;17.20;1.00;;;;;;4955151;28;20656;-66
2023/05/09 05:39:14;;;;;;;16.08;12.82;;;17.20;1.00;;;;;;4950124;28;20202;-62
2023/05/09 05:41:41;;;;;;;14.48;12.98;;;17.40;1.00;;;;;;4965822;28;20605;-65
2023/05/09 05:44:09;;;;;;;14.45;12.70;;;17.50;1.00;;;;;;4967633;28;20677;-61
2023/05/09 05:46:37;;;;;;;13.63;12.35;;;17.80;1.00;;;;;;4941773;29;20726;-61
2023/05/09 05:49:04;;;;;;;14.13;12.65;;;18.10;1.00;;;;;;4940758;28;20199;-61
2023/05/09 05:51:33;;;;;;;12.52;11.27;;;19.00;1.00;;;;;;4932820;29;20242;-61
2023/05/09 05:54:01;;;;;;;12.48;11.13;;;20.60;1.00;;;;;;4949403;28;20221;-61
2023/05/09 05:56:29;;;;;;;13.77;11.60;;;21.10;1.00;;;;;;4934182;29;20237;-61
2023/05/09 05:58:56;;;;;;;14.45;12.10;;;20.80;1.00;;;;;;4921401;29;20787;-61
2023/05/09 06:01:23;;;;;;;13.63;11.70;;;20.10;1.00;;;;;;4934362;29;20231;-62
2023/05/09 06:03:53;;;;;;;13.85;12.45;;;20.10;1.00;;;;;;4951583;28;20227;-61
2023/05/09 06:06:25;;;;;;;14.30;12.80;;;19.10;1.00;;;;;;4939547;28;20210;-62
2023/05/09 06:08:54;;;;;;;16.25;13.65;;;18.20;1.00;;;;;;4935158;28;20195;-62
2023/05/09 06:11:22;;;;;;;16.65;13.52;;;17.70;1.00;;;;;;4949571;28;20234;-63
2023/05/09 06:13:49;;;;;;;15.93;14.30;;;17.60;1.00;;;;;;4935510;29;20206;-62
2023/05/09 06:16:16;;;;;;;16.05;14.35;;;17.40;1.00;;;;;;4938168;28;20220;-63
2023/05/09 06:18:49;;;;;;;15.98;14.38;;;17.40;1.00;;;;;;4940492;29;20243;-62
2023/05/09 06:21:19;;;;;;;15.60;14.07;;;17.40;1.00;;;;;;4957632;28;20194;-61
2023/05/09 06:23:46;;;;;;;16.52;14.82;;;17.70;1.00;;;;;;4957119;28;20195;-61
2023/05/09 06:26:32;;;;;;;18.23;14.88;;;17.30;1.00;;;;;;4971800;28;20194;-62
2023/05/09 06:28:59;;;;;;;19.40;15.52;;;17.50;1.00;;;;;;4952742;28;20195;-62
2023/05/09 06:31:26;;;;;;;16.77;15.07;;;17.50;1.00;;;;;;4955216;28;20203;-63
2023/05/09 06:33:53;;;;;;;17.85;15.90;;;17.50;1.00;;;;;;4957937;28;20186;-61
2023/05/09 06:36:20;;;;;;;16.27;14.60;;;17.50;1.00;;;;;;4949260;28;20203;-62
2023/05/09 06:38:47;;;;;;;16.02;14.43;;;17.50;1.00;;;;;;4942650;29;20198;-62
2023/05/09 06:41:14;;;;;;;18.95;14.98;;;17.70;1.00;;;;;;4962188;28;20276;-62
2023/05/09 06:43:41;;;;;;;17.77;15.90;;;18.00;1.00;;;;;;4953496;28;20207;-63
2023/05/09 06:46:08;;;;;;;16.65;15.05;;;18.00;1.00;;;;;;4952297;28;20701;-62
2023/05/09 06:48:35;;;;;;;15.65;14.15;;;18.30;1.00;;;;;;4949621;28;20285;-63
2023/05/09 06:51:02;;;;;;;15.77;14.18;;;18.70;1.00;;;;;;4941645;28;20742;-62
2023/05/09 06:53:29;;;;;;;15.65;13.98;;;18.80;1.00;;;;;;4925564;28;20227;-61
2023/05/09 06:55:56;;;;;;;17.17;15.38;;;18.60;1.00;;;;;;4952093;29;20242;-62
2023/05/09 06:58:23;;;;;;;16.98;15.27;;;18.20;1.00;;;;;;4933221;29;20664;-62
2023/05/09 07:00:50;;;;;;;16.70;14.98;;;18.00;1.00;;;;;;4940067;29;20234;-62
2023/05/09 07:03:17;;;;;;;17.13;15.48;;;18.00;1.00;;;;;;4936171;29;20231;-62
2023/05/09 07:05:44;;;;;;;16.27;14.77;;;18.20;1.00;;;;;;4957821;28;20202;-61
2023/05/09 07:08:12;;;;;;;18.38;16.42;;;18.20;1.00;;;;;;4940410;28;20675;-62
2023/05/09 07:10:39;;;;;;;18.23;16.42;;;18.20;1.00;;;;;;4947958;29;20194;-63
2023/05/09 07:13:06;;;;;;;17.60;15.80;;;18.10;1.00;;;;;;4931964;28;20785;-62
2023/05/09 07:15:33;;;;;;;17.30;15.48;;;18.10;1.00;;;;;;4949411;29;20903;-62
2023/05/09 07:18:08;;;;;;;19.75;15.90;;;18.70;1.00;;;;;;4948019;28;20307;-62
2023/05/09 07:20:36;;;;;;;17.88;16.02;;;18.90;1.00;;;;;;4947394;28;20214;-62
2023/05/09 07:23:03;;;;;;;17.35;15.65;;;19.00;1.00;;;;;;4949506;29;20266;-62
2023/05/09 07:25:30;;;;;;;18.73;16.67;;;18.80;1.00;;;;;;4930091;29;20282;-62
2023/05/09 07:27:57;;;;;;;19.08;17.27;;;18.30;1.00;;;;;;4945037;29;20198;-62
2023/05/09 07:30:24;;;;;;;19.73;16.88;;;18.10;1.00;;;;;;4929702;29;20195;-62
2023/05/09 07:32:52;;;;;;;18.98;17.00;;;17.90;1.00;;;;;;4946709;28;20223;-63
2023/05/09 07:35:19;;;;;;;19.77;17.33;;;18.00;1.00;;;;;;4947773;29;20213;-63
2023/05/09 07:37:46;;;;;;;18.65;16.75;;;18.10;1.00;;;;;;4947972;29;20203;-62
2023/05/09 07:40:14;;;;;;;16.42;14.55;;;18.30;1.00;;;;;;4947253;28;20206;-62
2023/05/09 07:42:48;;;;;;;16.48;14.82;;;18.30;1.00;;;;;;4948852;28;20194;-62
2023/05/09 07:45:15;;;;;;;16.23;14.55;;;18.30;1.00;;;;;;4922341;29;20347;-62
2023/05/09 07:47:43;;;;;;;16.35;14.75;;;18.30;1.00;;;;;;4942380;29;20624;-62
2023/05/09 07:50:10;;;;;;;16.85;15.15;;;18.30;1.00;;;;;;4948394;28;20199;-63
2023/05/09 07:52:37;;;;;;;16.98;15.18;;;18.10;1.00;;;;;;4946426;28;20219;-62
2023/05/09 07:55:05;;;;;;;19.17;15.93;;;18.00;1.00;;;;;;4948896;29;20608;-62
2023/05/09 07:57:32;;;;;;;20.08;16.02;;;18.00;1.00;;;;;;4948185;28;20578;-61
2023/05/09 07:59:59;;;;;;;16.17;14.48;;;18.30;1.00;;;;;;4945894;28;20233;-63
2023/05/09 08:02:26;;;;;;;15.50;14.00;;;18.60;1.00;;;;;;4928114;28;20243;-63
2023/05/09 08:04:53;;;;;;;15.93;13.90;;;18.70;1.00;;;;;;4928878;29;20212;-62
2023/05/09 08:07:20;;;;;;;15.13;13.30;;;18.80;1.00;;;;;;4928998;28;20593;-62
2023/05/09 08:09:47;;;;;;;14.02;12.63;;;19.30;1.00;;;;;;4945518;29;20674;-62
2023/05/09 08:12:14;;;;;;;13.45;12.13;;;19.10;1.00;;;;;;4945396;29;20575;-62
2023/05/09 08:14:41;;;;;;;14.75;13.25;;;18.70;1.00;;;;;;4915062;29;20294;-63
2023/05/09 08:17:08;;;;;;;17.08;12.35;;;18.80;1.00;;;;;;4930579;29;20199;-62
2023/05/09 08:19:35;;;;;;;15.32;13.82;;;18.70;1.00;;;;;;4948904;28;20824;-63
2023/05/09 08:22:02;;;;;;;14.93;13.35;;;18.80;1.00;;;;;;4932396;28;20305;-62
2023/05/09 08:24:30;;;;;;;13.85;12.50;;;18.80;1.00;;;;;;4948217;28;20203;-63
2023/05/09 08:26:57;;;;;;;15.48;12.77;;;19.00;1.00;;;;;;4934107;28;20225;-63
2023/05/09 08:29:24;;;;;;;13.75;12.35;;;19.50;1.00;;;;;;4933182;29;20210;-64
2023/05/09 08:31:51;;;;;;;15.35;13.85;;;19.30;1.00;;;;;;4931478;28;20219;-63
2023/05/09 08:34:19;;;;;;;14.30;12.90;;;19.20;1.00;;;;;;4947616;28;20476;-62
2023/05/09 08:36:47;;;;;;;15.60;14.00;;;19.00;1.00;;;;;;4946084;28;20273;-63
2023/05/09 08:39:14;;;;;;;14.43;13.02;;;19.20;1.00;;;;;;4932558;29;20686;-63
2023/05/09 08:41:41;;;;;;;14.23;12.90;;;19.40;1.00;;;;;;4950706;28;20671;-63
2023/05/09 08:44:09;;;;;;;13.57;12.20;;;19.30;1.00;;;;;;4934186;29;20222;-63
2023/05/09 08:46:38;;;;;;;13.82;12.52;;;19.50;1.00;;;;;;4937466;28;20242;-62
2023/05/09 08:49:07;;;;;;;14.35;11.90;;;19.60;1.00;;;;;;4948453;28;20286;-62
2023/05/09 08:51:35;;;;;;;14.07;12.70;;;19.80;1.00;;;;;;4932619;28;20705;-63
2023/05/09 08:54:04;;;;;;;13.27;12.02;;;19.60;1.00;;;;;;4936883;28;20222;-63
2023/05/09 08:56:31;;;;;;;17.13;13.05;;;19.60;1.00;;;;;;4935255;29;20199;-62
2023/05/09 08:58:58;;;;;;;14.20;12.80;;;19.60;1.00;;;;;;4933443;29;20191;-62
2023/05/09 09:01:26;;;;;;;13.38;12.00;;;19.20;1.00;;;;;;4949587;28;20228;-63
2023/05/09 09:03:54;;;;;;;13.18;11.50;;;19.20;1.00;;;;;;4957116;28;20226;-63
2023/05/09 09:06:24;;;;;;;13.20;11.82;;;19.50;1.00;;;;;;4920118;28;20203;-63
2023/05/09 09:08:55;;;;;;;14.30;12.98;;;19.60;1.00;;;;;;4947952;28;20198;-63
2023/05/09 09:11:22;;;;;;;14.70;12.95;;;20.10;1.00;;;;;;4935101;29;20226;-63
2023/05/09 09:13:52;;;;;;;15.30;13.43;;;19.90;1.00;;;;;;4938697;28;20230;-62
2023/05/09 09:16:21;;;;;;;14.48;13.07;;;20.00;1.00;;;;;;4955029;28;20246;-62
2023/05/09 09:18:51;;;;;;;14.20;12.85;;;19.90;1.00;;;;;;4951350;28;20199;-63
2023/05/09 09:21:19;;;;;;;13.85;12.55;;;19.30;1.00;;;;;;4957802;28;20567;-63
2023/05/09 09:23:47;;;;;;;14.02;12.63;;;19.70;1.00;;;;;;4948806;28;20234;-63
2023/05/09 09:26:15;;;;;;;13.90;12.50;;;19.90;1.00;;;;;;4954890;28;20195;-62
2023/05/09 09:28:42;;;;;;;12.95;11.65;;;20.00;1.00;;;;;;4959271;28;20198;-62
2023/05/09 09:31:27;;;;;;;13.77;12.57;;;20.40;1.00;;;;;;4965923;28;20679;-63
2023/05/09 09:34:21;;;;;;;13.98;12.57;;;19.90;1.00;;;;;;4857442;29;20215;-63
2023/05/09 09:36:49;;;;;;;14.30;12.90;;;20.10;1.00;;;;;;4865895;29;20230;-64
2023/05/09 09:39:16;;;;;;;13.68;12.27;;;19.90;1.00;;;;;;4869149;29;20253;-64
2023/05/09 09:41:43;;;;;;;12.77;11.57;;;19.70;1.00;;;;;;4865087;29;20206;-62
2023/05/09 09:44:16;;;;;;;14.18;11.60;;;19.90;1.00;;;;;;4868756;29;20205;-63
2023/05/09 09:46:51;;;;;;;13.48;12.18;;;19.90;1.00;;;;;;4855052;29;20197;-62
2023/05/09 09:49:20;;;;;;;12.85;11.65;;;19.70;1.00;;;;;;4859983;29;20296;-63
2023/05/09 09:51:52;;;;;;;14.27;12.88;;;19.60;1.00;;;;;;4859785;29;20765;-62
2023/05/09 09:54:20;;;;;;;14.60;12.13;;;19.60;1.00;;;;;;4872656;29;20197;-62
2023/05/09 09:56:53;;;;;;;13.18;11.88;;;19.60;1.00;;;;;;4874762;29;20887;-62
2023/05/09 09:59:26;;;;;;;14.15;12.65;;;19.40;1.00;;;;;;4862011;29;20209;-62
2023/05/09 10:02:03;;;;;;;15.07;12.73;;;19.60;1.00;;;;;;4845753;29;20908;-63
2023/05/09 10:04:36;;;;;;;14.48;13.07;;;19.70;1.00;;;;;;4873633;29;20228;-62
2023/05/09 10:07:04;;;;;;;13.13;11.93;;;19.80;1.00;;;;;;4874369;29;20197;-64
2023/05/09 10:09:34;;;;;;;13.50;12.20;;;19.80;1.00;;;;;;4891985;29;20671;-63
2023/05/09 10:12:03;;;;;;;14.93;12.60;;;19.60;1.00;;;;;;4947671;28;20195;-63
2023/05/09 10:14:32;;;;;;;13.63;12.32;;;19.90;1.00;;;;;;4917787;29;20258;-62
2023/05/09 10:17:02;;;;;;;11.65;10.60;;;20.20;1.00;;;;;;4927585;29;20199;-63
2023/05/09 10:19:31;;;;;;;15.23;13.00;;;20.50;1.00;;;;;;4950019;29;20289;-63
2023/05/09 10:22:03;;;;;;;12.90;11.70;;;20.30;1.00;;;;;;4938200;28;20870;-63
2023/05/09 10:25:07;;;;;;;13.70;11.50;;;20.00;1.00;;;;;;4934333;29;20229;-62
2023/05/09 10:27:35;;;;;;;13.75;12.35;;;20.00;1.00;;;;;;4913074;29;20218;-63
2023/05/09 10:30:11;;;;;;;13.90;12.50;;;19.80;1.00;;;;;;4951797;28;20676;-62
2023/05/09 10:32:50;;;;;;;12.60;11.40;;;19.70;1.00;;;;;;4919925;29;20214;-64
2023/05/09 10:35:20;;;;;;;13.00;11.65;;;19.50;1.00;;;;;;4951850;28;20643;-63
2023/05/09 10:37:48;;;;;;;12.63;11.32;;;19.40;1.00;;;;;;4951555;28;20753;-62
2023/05/09 10:40:16;;;;;;;13.00;11.70;;;19.50;1.00;;;;;;4951658;28;20190;-62
2023/05/09 10:42:44;;;;;;;13.65;12.15;;;19.40;1.00;;;;;;4935935;29;20191;-64
2023/05/09 10:45:11;;;;;;;11.50;10.40;;;19.60;1.00;;;;;;4938612;28;20202;-62
2023/05/09 10:47:44;;;;;;;12.57;11.38;;;20.00;1.00;;;;;;4949809;29;20582;-63
2023/05/09 10:50:12;;;;;;;12.05;10.75;;;20.10;1.00;;;;;;4951495;29;20553;-65
2023/05/09 10:53:15;;;;;;;13.30;11.90;;;20.30;1.00;;;;;;4929382;29;20222;-62
2023/05/09 10:55:46;;;;;;;13.45;9.70;;;20.60;1.00;;;;;;4931851;29;20616;-63
2023/05/09 10:58:21;;;;;;;11.18;10.07;;;20.60;1.00;;;;;;4939568;29;20195;-63
2023/05/09 11:00:50;;;;;;;10.20;9.27;;;20.40;1.00;;;;;;4933528;29;20251;-63
2023/05/09 11:03:18;;;;;;;11.02;9.93;;;20.20;1.00;;;;;;4944313;29;20729;-63
2023/05/09 11:05:47;;;;;;;10.70;9.70;;;20.20;1.00;;;;;;4931635;29;20528;-62
2023/05/09 11:08:19;;;;;;;13.60;9.85;;;20.30;1.00;;;;;;4936390;29;20202;-63
2023/05/09 11:10:46;;;;;;;11.77;10.60;;;20.60;1.00;;;;;;4943347;28;20297;-63
2023/05/09 11:13:22;;;;;;;11.45;10.35;;;20.70;1.00;;;;;;4941536;28;20326;-63
2023/05/09 11:16:01;;;;;;;12.10;10.20;;;20.90;1.00;;;;;;4932911;28;20207;-64
2023/05/09 11:18:28;;;;;;;11.93;9.38;;;20.60;1.00;;;;;;4936670;28;20689;-62
2023/05/09 11:20:56;;;;;;;11.27;10.13;;;20.70;1.00;;;;;;4932922;29;20308;-64
2023/05/09 11:23:28;;;;;;;9.80;8.80;;;20.90;1.00;;;;;;4950221;28;20198;-62
2023/05/09 11:26:05;;;;;;;11.18;9.38;;;21.20;1.00;;;;;;4949525;28;20198;-63
2023/05/09 11:28:37;;;;;;;10.13;9.10;;;21.00;1.00;;;;;;4949816;28;20201;-62
2023/05/09 11:31:17;;;;;;;9.50;8.48;;;21.20;1.00;;;;;;4949828;28;20199;-61
2023/05/09 11:33:53;;;;;;;8.52;7.63;;;21.30;1.00;;;;;;4934411;28;20709;-62
2023/05/09 11:36:30;;;;;;;8.15;7.45;;;21.50;1.00;;;;;;4923515;29;20207;-62
2023/05/09 11:39:07;;;;;;;9.18;8.32;;;21.40;1.00;;;;;;4949662;28;20198;-64
2023/05/09 11:41:39;;;;;;;9.57;7.15;;;21.70;1.00;;;;;;4949587;28;20273;-62
2023/05/09 11:44:18;;;;;;;9.38;7.38;;;21.90;1.00;;;;;;4945438;28;20858;-64
2023/05/09 11:46:46;;;;;;;8.73;7.00;;;21.90;1.00;;;;;;4949056;28;20663;-62
2023/05/09 11:49:14;;;;;;;8.88;7.63;;;21.40;1.00;;;;;;4949644;28;20302;-63
2023/05/09 11:51:41;;;;;;;8.45;7.65;;;21.30;1.00;;;;;;4955990;28;20629;-63
2023/05/09 11:54:10;;;;;;;9.98;9.07;;;21.20;1.00;;;;;;4934246;28;20583;-63
2023/05/09 11:56:40;;;;;;;9.80;8.82;;;20.30;1.00;;;;;;4941902;28;20203;-64
2023/05/09 11:59:09;;;;;;;10.27;9.23;;;19.80;1.00;;;;;;4949284;28;20199;-64
2023/05/09 12:01:36;;;;;;;10.50;9.50;;;19.70;1.00;;;;;;4949300;28;20266;-64
2023/05/09 12:04:06;;;;;;;11.52;10.32;;;19.80;1.00;;;;;;4949610;28;20685;-64
2023/05/09 12:06:33;;;;;;;10.35;9.30;;;20.00;1.00;;;;;;4931994;28;20198;-64
2023/05/09 12:09:00;;;;;;;9.40;8.60;;;20.30;1.00;;;;;;4949313;28;20246;-66
2023/05/09 12:11:31;;;;;;;8.85;7.60;;;20.50;1.00;;;;;;4949174;28;20226;-63
2023/05/09 12:13:58;;;;;;;8.20;7.40;;;20.20;1.00;;;;;;4948789;28;20586;-66
2023/05/09 12:16:25;;;;;;;7.78;7.07;;;20.00;1.00;;;;;;4931339;29;20203;-63
2023/05/09 12:18:52;;;;;;;7.45;6.60;;;20.30;1.00;;;;;;4953522;28;20225;-64
2023/05/09 12:21:20;;;;;;;7.28;6.68;;;20.30;1.00;;;;;;4938651;29;20655;-66
2023/05/09 12:23:48;;;;;;;8.43;6.75;;;20.30;1.00;;;;;;4948768;28;20183;-64
2023/05/09 12:26:21;;;;;;;7.78;7.00;;;20.40;1.00;;;;;;4941891;28;20626;-65
2023/05/09 12:28:49;;;;;;;7.40;6.70;;;20.70;1.00;;;;;;4939393;28;20230;-64
2023/05/09 12:31:16;;;;;;;7.38;6.65;;;21.20;1.00;;;;;;4932497;28;20200;-65
2023/05/09 12:33:43;;;;;;;8.23;7.40;;;21.20;1.00;;;;;;4927945;29;20215;-64
2023/05/09 12:36:12;;;;;;;8.20;7.38;;;21.00;1.00;;;;;;4942948;28;20294;-63
2023/05/09 12:38:39;;;;;;;9.90;8.57;;;20.70;1.00;;;;;;4938490;28;20187;-63
2023/05/09 12:41:08;;;;;;;9.40;8.50;;;20.50;1.00;;;;;;4914372;29;20247;-64
2023/05/09 12:43:55;;;;;;;10.13;9.13;;;20.40;1.00;;;;;;4935858;28;20188;-63
2023/05/09 12:46:22;;;;;;;10.27;9.35;;;20.30;1.00;;;;;;4942171;28;20773;-64
2023/05/09 12:48:50;;;;;;;13.57;12.27;;;20.30;1.00;;;;;;4934720;28;20214;-63